createdAt,value
2019-01-14T00:04:06.401Z,8.01
2019-01-14T00:06:55.187Z,7.86
2019-01-14T00:09:44.007Z,8.23
2019-01-14T00:12:32.830Z,8.09
2019-01-14T00:18:16.570Z,6.84
2019-01-14T00:21:05.428Z,7.39
2019-01-14T00:23:54.318Z,8.26
2019-01-14T00:26:43.134Z,8.32
2019-01-14T00:29:31.976Z,6.80
2019-01-14T00:32:20.852Z,8.55
2019-01-14T00:35:09.807Z,8.20
2019-01-14T00:37:58.617Z,8.49
2019-01-14T00:40:47.428Z,8.43
2019-01-14T00:43:36.220Z,8.45
2019-01-14T00:46:25.030Z,8.27
2019-01-14T00:49:13.828Z,8.27
2019-01-14T00:52:02.638Z,8.46
2019-01-14T00:54:44.308Z,8.29
2019-01-14T00:57:33.118Z,8.35
2019-01-14T01:00:42.824Z,8.68
2019-01-14T01:03:31.635Z,8.27
2019-01-14T01:06:24.638Z,8.46
2019-01-14T01:09:10.955Z,8.66
2019-01-14T01:11:59.747Z,7.31
2019-01-14T01:14:48.549Z,8.64
2019-01-14T01:17:37.334Z,8.37
2019-01-14T01:23:22.174Z,8.06
2019-01-14T01:26:10.975Z,8.33
2019-01-14T01:28:59.797Z,8.29
2019-01-14T01:31:48.597Z,8.28
2019-01-14T01:34:37.408Z,7.62
2019-01-14T01:37:26.192Z,7.91
2019-01-14T01:40:35.915Z,6.69
2019-01-14T01:43:24.702Z,7.86
2019-01-14T01:46:13.502Z,6.89
2019-01-14T01:49:02.291Z,7.97
2019-01-14T01:51:51.089Z,8.07
2019-01-14T01:54:32.894Z,7.02
2019-01-14T01:57:21.709Z,7.61
2019-01-14T02:00:31.425Z,7.75
2019-01-14T02:03:20.221Z,7.65
2019-01-14T02:06:09.091Z,7.97
2019-01-14T02:08:57.880Z,7.71
2019-01-14T02:11:46.690Z,7.93
2019-01-14T02:17:44.939Z,7.94
2019-01-14T02:20:33.746Z,8.03
2019-01-14T02:23:22.546Z,8.04
2019-01-14T02:26:11.657Z,7.93
2019-01-14T02:29:00.465Z,7.74
2019-01-14T02:31:49.253Z,7.60
2019-01-14T02:34:38.341Z,8.05
2019-01-14T02:37:27.149Z,7.31
2019-01-14T02:40:36.930Z,7.60
2019-01-14T02:43:25.739Z,7.91
2019-01-14T02:46:14.546Z,6.40
2019-01-14T02:49:03.371Z,7.84
2019-01-14T02:51:52.162Z,7.77
2019-01-14T02:54:33.511Z,7.92
2019-01-14T02:57:22.322Z,8.13
2019-01-14T03:00:30.443Z,8.12
2019-01-14T03:03:19.248Z,8.26
2019-01-14T03:06:08.041Z,8.46
2019-01-14T03:08:56.859Z,8.31
2019-01-14T03:11:45.680Z,7.31
2019-01-14T03:14:34.459Z,8.13
2019-01-14T03:17:23.261Z,6.62
2019-01-14T03:20:32.955Z,8.06
2019-01-14T03:23:21.767Z,7.40
2019-01-14T03:26:10.556Z,7.84
2019-01-14T03:28:59.708Z,7.62
2019-01-14T03:31:48.501Z,6.52
2019-01-14T03:34:37.307Z,6.19
2019-01-14T03:37:26.100Z,7.78
2019-01-14T03:40:35.827Z,7.36
2019-01-14T03:43:43.748Z,7.42
2019-01-14T03:46:32.615Z,5.99
2019-01-14T03:49:21.427Z,7.45
2019-01-14T03:52:10.220Z,7.40
2019-01-14T03:54:59.038Z,7.36
2019-01-14T03:57:41.079Z,7.62
2019-01-14T04:00:29.912Z,7.48
2019-01-14T04:03:18.686Z,7.14
2019-01-14T04:06:07.498Z,7.13
2019-01-14T04:08:56.296Z,7.44
2019-01-14T04:11:45.102Z,7.50
2019-01-14T04:14:33.900Z,6.12
2019-01-14T04:17:22.706Z,7.32
2019-01-14T04:20:32.400Z,7.58
2019-01-14T04:23:21.212Z,7.57
2019-01-14T04:26:10.067Z,6.86
2019-01-14T04:28:58.866Z,7.28
2019-01-14T04:31:47.652Z,7.41
2019-01-14T04:34:36.458Z,7.57
2019-01-14T04:37:25.398Z,7.47
2019-01-14T04:40:35.116Z,7.48
2019-01-14T04:43:23.904Z,7.75
2019-01-14T04:46:12.723Z,6.82
2019-01-14T04:49:01.507Z,7.88
2019-01-14T04:51:50.321Z,7.91
2019-01-14T04:54:31.666Z,6.99
2019-01-14T04:57:20.428Z,7.46
2019-01-14T05:00:28.537Z,7.77
2019-01-14T05:03:17.347Z,7.94
2019-01-14T05:06:06.148Z,7.63
2019-01-14T05:08:55.014Z,6.92
2019-01-14T05:11:43.813Z,8.02
2019-01-14T05:14:32.618Z,7.64
2019-01-14T05:17:21.406Z,7.68
2019-01-14T05:20:31.138Z,8.01
2019-01-14T05:23:19.939Z,8.14
2019-01-14T05:26:08.739Z,8.04
2019-01-14T05:32:13.088Z,8.10
2019-01-14T05:35:01.904Z,7.86
2019-01-14T05:37:50.702Z,8.15
2019-01-14T05:40:39.495Z,8.21
2019-01-14T05:43:28.315Z,8.32
2019-01-14T05:49:24.863Z,8.76
2019-01-14T05:52:13.653Z,8.78
2019-01-14T05:55:02.472Z,8.84
2019-01-14T05:57:51.340Z,8.83
2019-01-14T06:03:39.307Z,8.83
2019-01-14T06:06:29.047Z,8.12
2019-01-14T06:09:17.859Z,8.24
2019-01-14T06:12:06.650Z,6.69
2019-01-14T06:14:55.452Z,8.44
2019-01-14T06:17:44.310Z,8.51
2019-01-14T06:23:32.201Z,8.49
2019-01-14T06:26:21.255Z,8.32
2019-01-14T06:29:10.098Z,8.45
2019-01-14T06:31:58.883Z,8.57
2019-01-14T06:34:47.700Z,7.10
2019-01-14T06:37:36.487Z,8.26
2019-01-14T06:40:25.399Z,8.27
2019-01-14T06:43:14.142Z,7.90
2019-01-14T06:46:02.947Z,7.84
2019-01-14T06:48:51.741Z,7.48
2019-01-14T06:51:40.552Z,7.12
2019-01-14T06:57:30.177Z,7.39
2019-01-14T07:03:47.630Z,6.96
2019-01-14T07:06:36.426Z,5.99
2019-01-14T07:09:25.260Z,7.67
2019-01-14T07:12:14.115Z,7.83
2019-01-14T07:15:02.925Z,8.03
2019-01-14T07:17:51.729Z,7.93
2019-01-14T07:20:40.539Z,8.01
2019-01-14T07:23:29.344Z,8.11
2019-01-14T07:26:18.172Z,6.86
2019-01-14T07:29:06.975Z,8.20
2019-01-14T07:31:55.782Z,8.02
2019-01-14T07:34:44.588Z,7.02
2019-01-14T07:37:33.407Z,7.87
2019-01-14T07:40:22.229Z,7.89
2019-01-14T07:43:11.020Z,7.26
2019-01-14T07:45:59.833Z,6.88
2019-01-14T07:48:48.645Z,6.88
2019-01-14T07:54:38.401Z,6.83
2019-01-14T07:57:27.194Z,7.41
2019-01-14T08:00:35.314Z,6.39
2019-01-14T08:03:24.100Z,6.89
2019-01-14T08:06:12.909Z,6.93
2019-01-14T08:09:01.707Z,7.18
2019-01-14T08:11:50.515Z,6.96
2019-01-14T08:14:39.301Z,7.06
2019-01-14T08:17:28.124Z,6.80
2019-01-14T08:20:16.973Z,6.62
2019-01-14T08:23:05.782Z,5.09
2019-01-14T08:25:54.920Z,6.58
2019-01-14T08:28:43.724Z,6.78
2019-01-14T08:31:32.528Z,6.97
2019-01-14T08:34:21.352Z,7.07
2019-01-14T08:37:10.145Z,7.03
2019-01-14T08:39:58.962Z,7.22
2019-01-14T08:42:47.748Z,6.14
2019-01-14T08:45:36.563Z,7.50
2019-01-14T08:48:25.383Z,7.25
2019-01-14T08:51:14.239Z,7.90
2019-01-14T08:54:03.103Z,6.47
2019-01-14T08:56:51.889Z,7.44
2019-01-14T08:59:40.697Z,7.72
2019-01-14T09:02:29.485Z,7.84
2019-01-14T09:05:18.735Z,6.60
2019-01-14T09:08:07.544Z,7.14
2019-01-14T09:10:56.330Z,7.27
2019-01-14T09:13:45.135Z,7.26
2019-01-14T09:16:33.940Z,7.20
2019-01-14T09:19:22.746Z,7.29
2019-01-14T09:22:11.236Z,7.38
2019-01-14T09:25:00.091Z,7.34
2019-01-14T09:27:50.588Z,6.02
2019-01-14T09:30:39.404Z,6.14
2019-01-14T09:33:28.205Z,7.28
2019-01-14T09:36:17.004Z,7.01
2019-01-14T09:39:26.705Z,7.00
2019-01-14T09:42:15.519Z,5.09
2019-01-14T09:48:33.248Z,6.66
2019-01-14T09:54:24.126Z,6.90
2019-01-14T09:57:12.925Z,6.90
2019-01-14T10:00:01.735Z,7.34
2019-01-14T10:02:55.430Z,6.91
2019-01-14T10:05:41.132Z,7.02
2019-01-14T10:08:29.925Z,7.63
2019-01-14T10:11:18.718Z,7.07
2019-01-14T10:14:07.524Z,7.61
2019-01-14T10:23:21.511Z,7.50
2019-01-14T10:29:05.844Z,6.86
2019-01-14T10:31:54.632Z,7.39
2019-01-14T10:34:43.437Z,7.09
2019-01-14T10:37:32.229Z,7.56
2019-01-14T10:40:21.037Z,6.87
2019-01-14T10:43:09.828Z,6.87
2019-01-14T10:45:58.701Z,5.58
2019-01-14T10:48:47.483Z,7.14
2019-01-14T10:51:36.302Z,6.59
2019-01-14T10:54:16.055Z,6.97
2019-01-14T10:57:04.864Z,7.04
2019-01-14T10:59:53.758Z,7.58
2019-01-14T11:05:51.939Z,6.75
2019-01-14T11:08:40.722Z,7.80
2019-01-14T11:11:30.452Z,7.82
2019-01-14T11:14:19.261Z,7.43
2019-01-14T11:17:08.060Z,6.60
2019-01-14T11:19:56.858Z,7.48
2019-01-14T11:22:45.642Z,7.26
2019-01-14T11:25:34.544Z,6.91
2019-01-14T11:28:23.331Z,7.19
2019-01-14T11:31:12.142Z,7.17
2019-01-14T11:34:00.959Z,6.99
2019-01-14T11:36:49.792Z,7.31
2019-01-14T11:39:38.579Z,6.16
2019-01-14T11:42:27.392Z,7.15
2019-01-14T11:45:10.948Z,7.04
2019-01-14T11:47:59.756Z,7.23
2019-01-14T11:50:48.567Z,6.42
2019-01-14T11:53:30.781Z,7.46
2019-01-14T11:56:19.598Z,7.35
2019-01-14T11:59:08.373Z,7.75
2019-01-14T12:01:57.333Z,7.49
2019-01-14T12:04:46.144Z,7.10
2019-01-14T12:07:34.933Z,6.18
2019-01-14T12:10:23.739Z,7.43
2019-01-14T12:13:12.661Z,5.93
2019-01-14T12:16:01.474Z,7.61
2019-01-14T12:18:50.279Z,6.38
2019-01-14T12:21:39.069Z,7.22
2019-01-14T12:24:27.882Z,5.67
2019-01-14T12:27:16.671Z,7.42
2019-01-14T12:30:44.182Z,7.67
2019-01-14T12:33:33.022Z,6.64
2019-01-14T12:36:22.234Z,6.59
2019-01-14T12:39:10.995Z,7.01
2019-01-14T12:41:59.809Z,6.80
2019-01-14T12:44:48.600Z,6.71
2019-01-14T12:47:37.422Z,6.74
2019-01-14T12:50:26.349Z,7.28
2019-01-14T12:53:07.640Z,7.35
2019-01-14T12:55:56.456Z,7.85
2019-01-14T12:58:45.361Z,7.55
2019-01-14T13:01:34.152Z,8.12
2019-01-14T13:04:22.949Z,7.19
2019-01-14T13:07:11.793Z,7.34
2019-01-14T13:10:00.651Z,7.48
2019-01-14T13:12:49.532Z,8.24
2019-01-14T13:15:57.341Z,8.06
2019-01-14T13:18:46.172Z,6.85
2019-01-14T13:21:34.970Z,7.38
2019-01-14T13:24:23.791Z,6.91
2019-01-14T13:27:12.602Z,7.02
2019-01-14T13:30:01.392Z,6.36
2019-01-14T13:32:50.192Z,6.43
2019-01-14T13:35:38.995Z,6.58
2019-01-14T13:38:27.816Z,4.70
2019-01-14T13:41:16.597Z,6.25
2019-01-14T13:44:05.487Z,4.56
2019-01-14T13:46:54.267Z,6.90
2019-01-14T13:49:43.080Z,6.96
2019-01-14T13:52:31.868Z,7.60
2019-01-14T13:55:13.231Z,8.28
2019-01-14T13:58:02.019Z,9.01
2019-01-14T14:00:50.891Z,8.90
2019-01-14T14:03:39.692Z,7.03
2019-01-14T14:06:28.500Z,6.74
2019-01-14T14:09:17.291Z,7.05
2019-01-14T14:12:06.085Z,6.77
2019-01-14T14:14:54.897Z,6.88
2019-01-14T14:17:43.709Z,7.22
2019-01-14T14:20:32.502Z,7.07
2019-01-14T14:23:21.320Z,6.66
2019-01-14T14:26:10.120Z,7.03
2019-01-14T14:28:58.926Z,6.64
2019-01-14T14:31:47.787Z,4.58
2019-01-14T14:34:36.589Z,6.70
2019-01-14T14:37:25.374Z,7.07
2019-01-14T14:40:14.252Z,5.30
2019-01-14T14:43:03.131Z,7.07
2019-01-14T14:45:51.919Z,6.00
2019-01-14T14:48:40.726Z,6.61
2019-01-14T14:54:37.272Z,6.16
2019-01-14T14:57:26.066Z,5.71
2019-01-14T15:00:36.151Z,5.89
2019-01-14T15:03:24.939Z,5.63
2019-01-14T15:06:13.744Z,4.37
2019-01-14T15:09:02.599Z,5.32
2019-01-14T15:14:50.546Z,4.61
2019-01-14T15:17:39.356Z,4.54
2019-01-14T15:20:28.422Z,4.83
2019-01-14T15:23:17.254Z,4.61
2019-01-14T15:26:06.053Z,4.44
2019-01-14T15:28:54.874Z,4.70
2019-01-14T15:31:43.663Z,4.92
2019-01-14T15:34:33.181Z,4.02
2019-01-14T15:37:23.021Z,4.88
2019-01-14T15:40:14.675Z,4.46
2019-01-14T15:46:11.227Z,4.87
2019-01-14T15:48:52.630Z,4.88
2019-01-14T15:51:41.512Z,5.21
2019-01-14T15:54:30.334Z,3.13
2019-01-14T15:57:19.122Z,3.53
2019-01-14T16:00:28.835Z,4.55
2019-01-14T16:03:17.632Z,4.91
2019-01-14T16:06:06.430Z,5.02
2019-01-14T16:08:55.218Z,4.89
2019-01-14T16:11:44.030Z,5.20
2019-01-14T16:14:32.834Z,4.93
2019-01-14T16:17:21.655Z,3.62
2019-01-14T16:20:31.375Z,5.00
2019-01-14T16:23:20.175Z,5.04
2019-01-14T16:26:08.961Z,3.65
2019-01-14T16:28:57.833Z,5.43
2019-01-14T16:31:46.698Z,5.25
2019-01-14T16:34:35.497Z,4.90
2019-01-14T16:37:24.284Z,3.43
2019-01-14T16:40:18.004Z,5.39
2019-01-14T16:43:04.506Z,4.73
2019-01-14T16:45:46.804Z,4.70
2019-01-14T16:48:35.594Z,5.13
2019-01-14T16:51:24.418Z,4.14
2019-01-14T16:54:13.200Z,5.24
2019-01-14T16:57:02.015Z,5.21
2019-01-14T16:59:50.829Z,5.25
2019-01-14T17:02:39.873Z,5.40
2019-01-14T17:05:28.695Z,3.92
2019-01-14T17:08:17.802Z,5.30
2019-01-14T17:11:06.616Z,5.46
2019-01-14T17:13:55.400Z,4.19
2019-01-14T17:16:44.231Z,5.26
2019-01-14T17:19:33.038Z,4.11
2019-01-14T17:22:21.832Z,5.23
2019-01-14T17:25:10.712Z,3.48
2019-01-14T17:27:59.510Z,5.20
2019-01-14T17:30:48.316Z,5.12
2019-01-14T17:33:37.121Z,4.84
2019-01-14T17:36:25.924Z,5.31
2019-01-14T17:39:14.717Z,3.70
2019-01-14T17:45:02.773Z,5.24
2019-01-14T17:47:42.610Z,5.74
2019-01-14T17:50:31.409Z,5.68
2019-01-14T17:53:20.221Z,5.48
2019-01-14T17:56:09.001Z,4.82
2019-01-14T17:58:57.832Z,5.59
2019-01-14T18:01:46.623Z,4.01
2019-01-14T18:04:35.448Z,5.62
2019-01-14T18:07:24.236Z,4.76
2019-01-14T18:10:39.852Z,5.51
2019-01-14T18:13:24.460Z,5.74
2019-01-14T18:16:13.264Z,5.46
2019-01-14T18:19:02.070Z,5.48
2019-01-14T18:21:50.904Z,5.37
2019-01-14T18:24:39.696Z,5.64
2019-01-14T18:27:28.506Z,5.18
2019-01-14T18:30:38.245Z,5.52
2019-01-14T18:33:27.042Z,5.05
2019-01-14T18:36:15.874Z,5.11
2019-01-14T18:39:25.553Z,5.55
2019-01-14T18:42:14.357Z,3.84
2019-01-14T18:44:56.041Z,5.59
2019-01-14T18:47:44.839Z,5.60
2019-01-14T18:50:33.658Z,5.69
2019-01-14T18:53:22.453Z,5.52
2019-01-14T18:56:11.284Z,4.03
2019-01-14T18:59:00.075Z,5.71
2019-01-14T19:01:49.238Z,5.68
2019-01-14T19:04:38.038Z,5.93
2019-01-14T19:07:26.847Z,5.83
2019-01-14T19:10:16.203Z,5.54
2019-01-14T19:13:05.248Z,5.69
2019-01-14T19:15:54.366Z,4.23
2019-01-14T19:18:43.595Z,5.21
2019-01-14T19:24:40.690Z,4.34
2019-01-14T19:27:45.311Z,5.70
2019-01-14T19:33:51.709Z,5.58
2019-01-14T19:37:00.022Z,5.77
2019-01-14T19:40:20.368Z,5.81
2019-01-14T19:42:53.299Z,5.60
2019-01-14T19:46:01.179Z,5.76
2019-01-14T19:54:58.619Z,6.01
2019-01-14T19:57:48.526Z,5.82
2019-01-14T20:00:52.431Z,5.71
2019-01-14T20:03:48.837Z,5.86
2019-01-14T20:10:41.927Z,4.36
2019-01-14T20:16:27.805Z,5.26
2019-01-14T20:26:20.518Z,4.93
2019-01-14T20:32:13.021Z,5.46
2019-01-14T20:38:17.883Z,5.67
2019-01-14T20:44:37.972Z,5.59
2019-01-14T20:47:41.235Z,5.61
2019-01-14T20:57:24.315Z,5.56
2019-01-14T21:04:05.799Z,5.77
2019-01-14T21:06:43.580Z,5.79
2019-01-14T21:09:33.571Z,6.00
2019-01-14T21:12:23.528Z,5.24
2019-01-14T21:15:13.578Z,5.32
2019-01-14T21:18:02.772Z,5.85
2019-01-14T21:20:52.292Z,4.58
2019-01-14T21:23:41.615Z,5.62
2019-01-14T21:26:30.970Z,5.85
2019-01-14T21:29:27.275Z,5.75
2019-01-14T21:32:16.331Z,4.32
2019-01-14T21:34:58.323Z,5.96
2019-01-14T21:41:02.155Z,5.44
2019-01-14T21:46:58.706Z,5.82
2019-01-14T21:49:47.489Z,4.19
2019-01-14T21:52:36.300Z,5.54
2019-01-14T21:55:25.181Z,4.76
2019-01-14T21:58:14.057Z,5.38
2019-01-14T22:01:02.844Z,5.66
2019-01-14T22:03:51.720Z,4.11
2019-01-14T22:06:40.531Z,4.32
2019-01-14T22:09:29.342Z,5.54
2019-01-14T22:12:18.130Z,3.92
2019-01-14T22:15:27.867Z,5.45
2019-01-14T22:18:16.663Z,5.72
2019-01-14T22:21:05.549Z,5.61
2019-01-14T22:23:54.343Z,3.82
2019-01-14T22:26:36.278Z,5.09
2019-01-14T22:29:25.040Z,5.67
2019-01-14T22:32:13.847Z,5.28
2019-01-14T22:35:02.737Z,3.99
2019-01-14T22:37:51.523Z,5.53
2019-01-14T22:40:40.340Z,5.60
2019-01-14T22:43:29.126Z,4.02
2019-01-14T22:46:17.946Z,5.50
2019-01-14T22:49:06.734Z,5.30
2019-01-14T22:51:55.543Z,5.43
2019-01-14T22:54:44.326Z,3.93
2019-01-14T22:57:33.153Z,5.36
2019-01-14T23:01:01.888Z,5.37
2019-01-14T23:03:50.778Z,5.00
2019-01-14T23:06:39.563Z,5.11
2019-01-14T23:09:28.399Z,4.05
2019-01-14T23:12:17.171Z,4.95
2019-01-14T23:15:06.714Z,3.52
2019-01-14T23:17:55.507Z,5.17
2019-01-14T23:20:44.345Z,4.98
2019-01-14T23:23:33.141Z,5.20
2019-01-14T23:26:14.807Z,5.23
2019-01-14T23:29:03.584Z,5.16
2019-01-14T23:31:45.167Z,5.22
2019-01-14T23:34:33.952Z,5.61
2019-01-14T23:37:22.834Z,4.81
2019-01-14T23:40:12.021Z,5.00
2019-01-14T23:43:00.851Z,3.92
2019-01-14T23:45:49.670Z,4.05
2019-01-14T23:48:38.463Z,5.09
2019-01-14T23:51:27.266Z,5.17
2019-01-14T23:53:56.723Z,5.21
2019-01-14T23:56:45.524Z,5.00
2019-01-14T23:59:34.323Z,3.34
